Time;durP1;ratioP1;P1;durP2;ratioP2;P2;SDS_P1;SDS_P2;PMS_P1;PMS_P2;Temp;Humidity;BMP_temperature;BMP_pressure;BME280_temperature;BME280_humidity;BME280_pressure;Samples;Min_cycle;Max_cycle;Signal;HPM_P1;HPM_P2
2023/12/07 00:00:45;;;;;;;31.23;18.33;;;;;;;6.76;100.00;99167.38;5071533;28;20216;-72
2023/12/07 00:03:12;;;;;;;26.30;17.97;;;;;;;6.77;100.00;99177.75;5071162;28;20330;-74
2023/12/07 00:05:38;;;;;;;28.80;18.27;;;;;;;6.73;100.00;99173.84;5068406;28;20290;-73
2023/12/07 00:08:05;;;;;;;29.43;17.63;;;;;;;6.64;100.00;99174.09;5069651;28;20192;-73
2023/12/07 00:10:32;;;;;;;26.27;17.27;;;;;;;6.55;100.00;99167.25;5070912;28;20577;-73
2023/12/07 00:13:00;;;;;;;29.60;18.17;;;;;;;6.59;100.00;99168.53;5071314;28;20257;-73
2023/12/07 00:15:27;;;;;;;31.10;18.67;;;;;;;6.57;100.00;99167.91;5071213;28;20602;-72
2023/12/07 00:17:54;;;;;;;30.03;17.53;;;;;;;6.61;100.00;99167.34;5072136;28;20188;-72
2023/12/07 00:20:20;;;;;;;28.83;17.73;;;;;;;6.65;100.00;99165.19;5075073;28;20294;-73
2023/12/07 00:22:47;;;;;;;26.77;17.13;;;;;;;6.68;100.00;99159.53;5074951;28;20199;-72
2023/12/07 00:25:15;;;;;;;27.67;18.53;;;;;;;6.70;100.00;99166.28;5075287;28;20657;-73
2023/12/07 00:27:42;;;;;;;29.37;19.27;;;;;;;6.68;100.00;99159.53;5075337;28;20196;-71
2023/12/07 00:30:11;;;;;;;27.23;17.40;;;;;;;6.65;100.00;99165.19;5074659;28;20231;-72
2023/12/07 00:32:38;;;;;;;32.17;18.77;;;;;;;6.67;100.00;99160.53;5074972;28;20234;-72
2023/12/07 00:35:07;;;;;;;32.87;19.87;;;;;;;6.68;100.00;99159.53;5075122;28;20254;-72
2023/12/07 00:37:34;;;;;;;30.87;17.50;;;;;;;6.70;100.00;99176.03;5074816;28;20621;-72
2023/12/07 00:40:01;;;;;;;25.57;17.37;;;;;;;6.68;100.00;99170.94;5074894;28;20266;-72
2023/12/07 00:42:29;;;;;;;24.30;16.43;;;;;;;6.71;100.00;99170.56;5074797;28;20230;-73
2023/12/07 00:44:56;;;;;;;25.70;17.30;;;;;;;6.73;100.00;99167.75;5074580;28;20582;-72
2023/12/07 00:47:24;;;;;;;23.27;15.27;;;;;;;6.73;100.00;99176.47;5074760;28;20287;-72
2023/12/07 00:49:50;;;;;;;18.57;14.30;;;;;;;6.70;100.00;99171.56;5074815;28;20196;-72
2023/12/07 00:52:17;;;;;;;25.23;16.10;;;;;;;6.69;100.00;99172.56;5074688;28;20224;-73
2023/12/07 00:54:44;;;;;;;21.60;15.23;;;;;;;6.68;100.00;99175.38;5074415;28;20275;-74
2023/12/07 00:57:11;;;;;;;21.53;14.43;;;;;;;6.70;100.00;99168.13;5074273;28;20214;-73
2023/12/07 00:59:38;;;;;;;21.87;14.40;;;;;;;6.69;100.00;99166.47;5074313;28;20203;-73
2023/12/07 01:02:05;;;;;;;16.87;13.20;;;;;;;6.73;100.00;99165.13;5074481;28;20224;-73
2023/12/07 01:04:33;;;;;;;19.33;13.97;;;;;;;6.76;100.00;99162.09;5074461;28;20250;-73
2023/12/07 01:07:00;;;;;;;19.33;14.77;;;;;;;6.80;100.00;99161.56;5074460;28;20196;-74
2023/12/07 01:09:27;;;;;;;24.63;14.27;;;;;;;6.83;100.00;99160.38;5074064;28;20566;-74
2023/12/07 01:11:54;;;;;;;25.03;14.23;;;;;;;6.83;100.00;99163.03;5074397;28;20257;-75
2023/12/07 01:14:21;;;;;;;23.50;15.40;;;;;;;6.84;100.00;99159.38;5074361;28;20188;-74
2023/12/07 01:16:47;;;;;;;20.40;13.90;;;;;;;6.85;100.00;99164.50;5074009;28;20194;-74
2023/12/07 01:19:14;;;;;;;22.77;13.70;;;;;;;6.89;100.00;99162.28;5074212;28;20199;-73
2023/12/07 01:21:42;;;;;;;16.77;13.77;;;;;;;6.93;100.00;99168.84;5073857;28;20730;-73
2023/12/07 01:24:09;;;;;;;19.27;13.57;;;;;;;6.96;100.00;99158.78;5074187;28;20192;-73
2023/12/07 01:26:36;;;;;;;19.03;13.67;;;;;;;6.99;100.00;99158.41;5073637;28;20655;-73
2023/12/07 01:29:03;;;;;;;16.33;13.40;;;;;;;6.98;100.00;99156.75;5073961;28;20229;-74
2023/12/07 01:31:30;;;;;;;16.97;13.63;;;;;;;6.95;100.00;99156.31;5073677;28;20691;-73
2023/12/07 01:33:57;;;;;;;19.20;13.60;;;;;;;6.97;100.00;99159.56;5073664;28;20272;-73
2023/12/07 01:36:24;;;;;;;17.43;12.60;;;;;;;7.00;100.00;99151.28;5065454;28;20252;-73
2023/12/07 01:38:52;;;;;;;15.83;12.53;;;;;;;7.03;100.00;99148.31;5053909;28;20201;-73
2023/12/07 01:41:19;;;;;;;18.43;12.67;;;;;;;7.04;100.00;99149.94;5053461;28;20686;-73
2023/12/07 01:43:46;;;;;;;16.30;12.80;;;;;;;7.05;100.00;99156.84;5053711;28;20253;-73
2023/12/07 01:46:15;;;;;;;18.23;13.17;;;;;;;7.06;100.00;99163.78;5053479;28;20232;-73
2023/12/07 01:48:42;;;;;;;14.47;12.17;;;;;;;7.03;100.00;99149.13;5053632;28;20196;-73
2023/12/07 01:51:09;;;;;;;14.10;12.60;;;;;;;7.01;100.00;99156.41;5053350;28;20664;-73
2023/12/07 01:53:36;;;;;;;15.13;11.57;;;;;;;6.97;100.00;99160.41;5053027;28;20245;-74
2023/12/07 01:56:06;;;;;;;16.33;13.20;;;;;;;6.96;100.00;99152.66;5053220;28;20206;-73
2023/12/07 01:58:33;;;;;;;14.43;12.57;;;;;;;6.96;100.00;99152.66;5053099;28;20213;-73
2023/12/07 02:01:01;;;;;;;14.03;11.47;;;;;;;7.02;100.00;99157.22;5053215;28;20634;-74
2023/12/07 02:03:29;;;;;;;12.40;11.20;;;;;;;7.00;100.00;99159.22;5053316;28;20208;-74
2023/12/07 02:05:58;;;;;;;13.37;11.90;;;;;;;6.94;100.00;99167.88;5053075;28;20198;-74
2023/12/07 02:08:25;;;;;;;13.33;11.87;;;;;;;6.77;100.00;99134.72;5052927;28;20730;-75
2023/12/07 02:10:52;;;;;;;14.63;12.63;;;;;;;6.92;100.00;99156.66;5053039;28;20251;-74
2023/12/07 02:13:21;;;;;;;15.97;11.80;;;;;;;6.97;100.00;99167.50;5053049;28;20196;-73
2023/12/07 02:15:48;;;;;;;12.90;10.83;;;;;;;6.99;100.00;99152.31;5052869;28;20200;-73
2023/12/07 02:18:20;;;;;;;12.03;10.83;;;;;;;7.00;100.00;99164.50;5053142;28;20268;-73
2023/12/07 02:20:52;;;;;;;16.73;11.93;;;;;;;6.99;100.00;99163.69;5052905;28;20195;-73
2023/12/07 02:23:20;;;;;;;12.13;10.63;;;;;;;7.01;100.00;99159.03;5053200;28;20271;-74
2023/12/07 02:28:53;;;;;;;13.27;11.47;;;;;;;7.08;100.00;99159.97;5053075;28;20306;-74
2023/12/07 02:31:20;;;;;;;12.93;11.27;;;;;;;7.06;100.00;99155.88;5052994;28;20232;-73
2023/12/07 02:33:46;;;;;;;12.27;11.03;;;;;;;6.97;100.00;99146.38;5052789;28;20200;-73
2023/12/07 02:36:16;;;;;;;11.37;10.13;;;;;;;7.01;100.00;99150.28;5059183;28;20248;-73
2023/12/07 02:38:45;;;;;;;13.93;9.87;;;;;;;6.90;100.00;99142.84;5072619;28;20251;-73
2023/12/07 02:41:12;;;;;;;11.30;10.20;;;;;;;6.91;100.00;99149.75;5072766;28;20225;-72
2023/12/07 02:43:40;;;;;;;11.73;10.53;;;;;;;6.91;100.00;99142.66;5072201;28;20222;-73
2023/12/07 02:46:08;;;;;;;10.60;9.67;;;;;;;6.94;100.00;99146.75;5072610;28;20247;-73
2023/12/07 02:48:35;;;;;;;11.73;10.37;;;;;;;6.99;100.00;99152.31;5072320;28;20692;-73
2023/12/07 02:51:01;;;;;;;11.10;10.00;;;;;;;7.03;100.00;99148.31;5072482;28;20265;-73
2023/12/07 02:53:28;;;;;;;10.97;9.93;;;;;;;6.98;100.00;99150.69;5071984;28;20249;-73
2023/12/07 02:55:55;;;;;;;11.03;10.07;;;;;;;6.94;100.00;99144.91;5072410;28;20204;-73
2023/12/07 02:58:21;;;;;;;9.90;9.00;;;;;;;6.93;100.00;99142.44;5072163;28;20202;-74
2023/12/07 03:00:48;;;;;;;11.10;9.67;;;;;;;6.96;100.00;99144.75;5072351;28;20251;-73
2023/12/07 03:03:16;;;;;;;11.20;9.87;;;;;;;6.99;100.00;99141.75;5072039;28;20228;-74
2023/12/07 03:05:43;;;;;;;13.90;9.33;;;;;;;7.03;100.00;99149.13;5071934;28;20675;-74
2023/12/07 03:08:09;;;;;;;10.80;9.63;;;;;;;7.07;100.00;99147.75;5071973;28;20199;-75
2023/12/07 03:10:36;;;;;;;13.73;9.63;;;;;;;7.09;100.00;99148.38;5072260;28;20196;-73
2023/12/07 03:13:03;;;;;;;13.37;10.30;;;;;;;7.12;100.00;99155.13;5071697;28;20193;-73
2023/12/07 03:15:30;;;;;;;12.47;10.93;;;;;;;7.08;100.00;99151.22;5071815;28;20203;-73
2023/12/07 03:17:56;;;;;;;12.33;11.07;;;;;;;7.09;100.00;99158.94;5072130;28;20191;-73
2023/12/07 03:20:24;;;;;;;17.80;13.00;;;;;;;7.16;100.00;99161.69;5071580;28;20196;-74
2023/12/07 03:22:51;;;;;;;18.87;13.60;;;;;;;7.20;100.00;99160.31;5072143;28;20227;-73
2023/12/07 03:25:18;;;;;;;13.80;12.33;;;;;;;7.19;100.00;99153.41;5071434;28;20226;-74
2023/12/07 03:27:44;;;;;;;16.27;13.07;;;;;;;7.09;100.00;99155.47;5071842;28;20199;-73
2023/12/07 03:30:12;;;;;;;17.67;14.30;;;;;;;6.98;100.00;99151.47;5073416;28;20738;-74
2023/12/07 03:32:39;;;;;;;21.50;16.27;;;;;;;7.03;100.00;99153.59;5072523;28;20197;-72
2023/12/07 03:35:07;;;;;;;22.93;15.40;;;;;;;7.06;100.00;99154.03;5072232;28;20245;-72
2023/12/07 03:37:35;;;;;;;20.57;14.90;;;;;;;7.12;100.00;99157.75;5072481;28;20201;-72
2023/12/07 03:40:04;;;;;;;21.77;15.10;;;;;;;7.14;100.00;99151.28;5072196;28;20619;-72
2023/12/07 03:42:30;;;;;;;22.43;16.57;;;;;;;7.16;100.00;99151.94;5072223;28;20265;-73
2023/12/07 03:44:57;;;;;;;25.37;16.53;;;;;;;7.13;100.00;99143.56;5072292;28;20195;-72
2023/12/07 03:47:24;;;;;;;27.00;17.57;;;;;;;7.19;100.00;99148.13;5072210;28;20198;-73
2023/12/07 03:49:51;;;;;;;36.80;23.77;;;;;;;7.19;100.00;99148.13;5072530;28;20228;-72
2023/12/07 03:52:18;;;;;;;24.73;17.87;;;;;;;7.20;100.00;99147.13;5072420;28;20659;-72
2023/12/07 03:54:46;;;;;;;23.33;16.37;;;;;;;7.20;100.00;99149.75;5078663;28;20245;-72
2023/12/07 03:57:12;;;;;;;27.37;18.17;;;;;;;7.19;100.00;99143.63;5078522;28;20192;-72
2023/12/07 03:59:39;;;;;;;26.53;18.23;;;;;;;7.20;100.00;99139.19;5078336;28;20680;-72
2023/12/07 04:02:06;;;;;;;32.07;19.33;;;;;;;7.21;100.00;99140.81;5078004;28;20232;-72
2023/12/07 04:04:33;;;;;;;27.50;18.13;;;;;;;7.17;100.00;99139.53;5077765;28;20198;-72
2023/12/07 04:06:59;;;;;;;28.33;17.77;;;;;;;7.16;100.00;99137.91;5078154;28;20198;-72
2023/12/07 04:09:26;;;;;;;23.60;15.77;;;;;;;7.07;100.00;99134.53;5077627;28;20199;-72
2023/12/07 04:11:54;;;;;;;25.93;17.33;;;;;;;6.99;100.00;99139.94;5078194;28;20200;-71
2023/12/07 04:14:21;;;;;;;27.03;16.83;;;;;;;6.90;100.00;99142.84;5077917;28;20198;-72
2023/12/07 04:16:48;;;;;;;26.60;17.70;;;;;;;6.84;100.00;99148.81;5077646;28;20620;-73
2023/12/07 04:19:15;;;;;;;29.30;18.23;;;;;;;6.69;100.00;99146.16;5077442;28;20677;-73
2023/12/07 04:21:41;;;;;;;24.87;18.37;;;;;;;6.59;100.00;99142.16;5077602;28;20191;-73
2023/12/07 04:24:08;;;;;;;26.00;17.20;;;;;;;6.59;100.00;99147.44;5077769;28;20199;-73
2023/12/07 04:26:35;;;;;;;30.67;18.13;;;;;;;6.48;100.00;99147.84;5078258;28;20192;-72
2023/12/07 04:29:03;;;;;;;26.50;17.83;;;;;;;6.41;100.00;99154.84;5077905;28;20192;-73
2023/12/07 04:31:30;;;;;;;28.00;18.43;;;;;;;6.39;100.00;99154.19;5077479;28;20229;-73
2023/12/07 04:33:56;;;;;;;29.83;18.57;;;;;;;6.40;100.00;99150.59;5077473;28;20257;-73
2023/12/07 04:36:23;;;;;;;25.50;18.10;;;;;;;6.38;100.00;99152.56;5077811;28;20269;-73
2023/12/07 04:38:50;;;;;;;26.33;17.13;;;;;;;6.39;100.00;99143.66;5077568;28;20196;-73
2023/12/07 04:41:17;;;;;;;27.93;19.10;;;;;;;6.38;100.00;99158.66;5077826;28;20211;-73
2023/12/07 04:43:44;;;;;;;32.63;19.57;;;;;;;6.37;100.00;99161.47;5077543;28;20229;-73
2023/12/07 04:46:12;;;;;;;30.03;20.00;;;;;;;6.33;100.00;99154.91;5077685;28;20278;-72
2023/12/07 04:48:40;;;;;;;30.73;19.00;;;;;;;6.28;100.00;99157.28;5077624;28;20196;-73
2023/12/07 04:51:07;;;;;;;31.23;19.37;;;;;;;6.27;100.00;99168.78;5077491;28;20199;-74
2023/12/07 04:53:34;;;;;;;33.17;18.40;;;;;;;6.26;100.00;99159.25;5076907;28;20227;-73
2023/12/07 04:56:00;;;;;;;32.17;18.67;;;;;;;6.25;100.00;99174.25;5077269;28;20277;-73
2023/12/07 04:58:27;;;;;;;31.83;18.87;;;;;;;6.27;100.00;99171.44;5077525;28;20193;-73
2023/12/07 05:00:55;;;;;;;33.73;20.43;;;;;;;6.19;100.00;99164.41;5077573;28;20257;-72
2023/12/07 05:03:23;;;;;;;34.17;20.57;;;;;;;6.06;100.00;99168.63;5077166;28;20316;-73
2023/12/07 05:05:50;;;;;;;35.63;20.97;;;;;;;5.98;100.00;99166.88;5073114;28;20611;-73
2023/12/07 05:08:17;;;;;;;32.50;21.73;;;;;;;6.04;100.00;99171.44;5074289;28;20258;-73
2023/12/07 05:10:44;;;;;;;30.43;20.70;;;;;;;6.08;100.00;99177.19;5073147;28;20951;-74
2023/12/07 05:13:12;;;;;;;34.33;21.17;;;;;;;6.10;100.00;99180.47;5073477;28;20215;-73
2023/12/07 05:15:38;;;;;;;35.83;21.30;;;;;;;5.95;100.00;99169.06;5074105;28;20222;-73
2023/12/07 05:18:06;;;;;;;33.77;20.17;;;;;;;5.88;100.00;99181.28;5073852;28;20204;-73
2023/12/07 05:20:34;;;;;;;31.30;21.00;;;;;;;5.88;100.00;99178.63;5074143;28;20195;-73
2023/12/07 05:23:00;;;;;;;31.63;21.90;;;;;;;5.87;100.00;99182.28;5074207;28;20215;-72
2023/12/07 05:25:27;;;;;;;50.53;29.77;;;;;;;5.84;100.00;99179.97;5073902;28;20191;-72
2023/12/07 05:27:54;;;;;;;39.90;25.37;;;;;;;5.87;100.00;99180.44;5073708;28;20199;-72
2023/12/07 05:30:21;;;;;;;37.97;23.70;;;;;;;5.93;100.00;99186.84;5073789;28;20233;-73
2023/12/07 05:32:47;;;;;;;44.70;29.37;;;;;;;5.95;100.00;99192.78;5074269;28;20239;-73
2023/12/07 05:35:14;;;;;;;47.70;29.50;;;;;;;5.96;100.00;99197.84;5073224;28;20191;-74
2023/12/07 05:37:42;;;;;;;43.67;25.70;;;;;;;6.00;100.00;99201.78;5073397;28;20192;-73
2023/12/07 05:40:12;;;;;;;40.27;25.33;;;;;;;6.01;100.00;99206.06;5073545;28;20196;-73
2023/12/07 05:42:38;;;;;;;38.93;25.47;;;;;;;6.01;100.00;99210.50;5073403;28;20698;-73
2023/12/07 05:45:06;;;;;;;39.87;24.23;;;;;;;6.00;100.00;99208.88;5073314;28;20196;-73
2023/12/07 05:47:33;;;;;;;39.73;24.87;;;;;;;6.00;100.00;99220.22;5073724;28;20288;-73
2023/12/07 05:50:00;;;;;;;48.70;29.33;;;;;;;5.90;100.00;99226.72;5073356;28;20195;-74
2023/12/07 05:52:26;;;;;;;42.37;26.27;;;;;;;5.87;100.00;99237.63;5073543;28;20702;-73
2023/12/07 05:54:54;;;;;;;45.53;28.40;;;;;;;5.92;100.00;99232.66;5073328;28;20338;-73
2023/12/07 05:57:21;;;;;;;50.23;29.30;;;;;;;5.97;100.00;99238.22;5073502;28;20200;-73
2023/12/07 05:59:48;;;;;;;47.37;27.17;;;;;;;5.96;100.00;99236.56;5073459;28;20621;-74
2023/12/07 06:02:14;;;;;;;41.23;27.10;;;;;;;5.97;100.00;99236.41;5072978;28;20196;-73
2023/12/07 06:04:41;;;;;;;50.63;29.93;;;;;;;5.95;100.00;99224.41;5073683;28;20653;-73
2023/12/07 06:07:08;;;;;;;44.17;29.80;;;;;;;5.94;100.00;99233.28;5072787;28;20571;-74
2023/12/07 06:09:35;;;;;;;47.80;33.10;;;;;;;5.88;100.00;99234.78;5072810;28;20668;-74
2023/12/07 06:12:04;;;;;;;58.93;35.70;;;;;;;5.81;100.00;99238.28;5073346;28;20256;-73
2023/12/07 06:14:32;;;;;;;49.57;31.60;;;;;;;5.86;100.00;99231.50;5072898;28;20294;-77
2023/12/07 06:16:59;;;;;;;54.73;33.63;;;;;;;5.93;100.00;99236.91;5072556;28;20229;-77
2023/12/07 06:19:26;;;;;;;59.73;32.07;;;;;;;5.99;100.00;99237.03;5073023;28;20299;-78
2023/12/07 06:21:52;;;;;;;50.83;31.80;;;;;;;6.06;100.00;99242.44;5072749;28;20625;-77
2023/12/07 06:24:23;;;;;;;53.27;34.10;;;;;;;6.16;100.00;99240.41;5072651;28;20227;-78
2023/12/07 06:26:49;;;;;;;59.77;35.20;;;;;;;6.15;100.00;99236.13;5072456;28;20544;-78
2023/12/07 06:29:18;;;;;;;54.67;33.07;;;;;;;6.60;100.00;99238.78;5072899;28;20195;-78
2023/12/07 06:31:45;;;;;;;51.97;33.70;;;;;;;6.68;100.00;99249.25;5072907;28;20310;-77
2023/12/07 06:34:12;;;;;;;58.57;36.03;;;;;;;6.73;100.00;99249.56;5072474;28;20245;-76
2023/12/07 06:36:39;;;;;;;63.40;37.27;;;;;;;6.78;100.00;99252.50;5072540;28;20202;-79
2023/12/07 06:39:05;;;;;;;54.57;36.77;;;;;;;6.77;100.00;99256.16;5072425;28;20222;-78
2023/12/07 06:41:33;;;;;;;62.67;36.13;;;;;;;6.75;100.00;99250.22;5072314;28;20643;-76
2023/12/07 06:43:59;;;;;;;61.17;37.13;;;;;;;6.71;100.00;99248.91;5072406;28;20352;-78
2023/12/07 06:46:28;;;;;;;58.33;35.70;;;;;;;6.64;100.00;99254.09;5072017;28;20207;-78
2023/12/07 06:48:55;;;;;;;64.30;37.80;;;;;;;6.71;100.00;99254.19;5071616;28;20193;-78
2023/12/07 06:51:22;;;;;;;72.87;40.03;;;;;;;6.82;100.00;99251.16;5071599;28;20545;-77
2023/12/07 06:53:48;;;;;;;85.57;54.67;;;;;;;6.83;100.00;99250.13;5071411;28;20325;-78
2023/12/07 06:56:15;;;;;;;99.40;58.80;;;;;;;6.76;100.00;99254.47;5072163;28;20191;-77
2023/12/07 06:58:42;;;;;;;74.00;45.37;;;;;;;6.84;100.00;99254.41;5072034;28;20576;-77
2023/12/07 07:01:09;;;;;;;88.30;51.23;;;;;;;7.76;100.00;99246.84;5071293;28;20203;-76
2023/12/07 07:03:37;;;;;;;78.37;44.90;;;;;;;8.68;100.00;99241.59;5071661;28;20618;-78
2023/12/07 07:06:04;;;;;;;72.10;43.30;;;;;;;9.31;100.00;99246.78;5068511;28;20660;-75
2023/12/07 07:08:31;;;;;;;72.30;45.37;;;;;;;9.35;100.00;99254.13;5071695;28;20199;-76
2023/12/07 07:10:58;;;;;;;58.03;36.53;;;;;;;9.36;97.79;99270.88;5071845;28;20202;-78
2023/12/07 07:13:24;;;;;;;56.07;33.87;;;;;;;9.16;95.53;99269.91;5071917;28;20730;-72
2023/12/07 07:15:51;;;;;;;44.50;30.83;;;;;;;9.15;96.61;99258.47;5071422;28;20228;-75
2023/12/07 07:18:18;;;;;;;48.67;30.40;;;;;;;9.20;96.66;99264.00;5070926;28;20203;-76
2023/12/07 07:20:47;;;;;;;45.60;28.37;;;;;;;9.24;96.69;99261.81;5070662;28;20274;-77
2023/12/07 07:23:13;;;;;;;42.87;28.57;;;;;;;9.27;95.28;99262.25;5071424;28;20219;-76
2023/12/07 07:25:40;;;;;;;35.30;22.80;;;;;;;9.25;94.19;99268.75;5071602;28;20241;-78
2023/12/07 07:28:07;;;;;;;37.50;23.33;;;;;;;9.15;93.07;99270.94;5067447;28;20202;-76
2023/12/07 07:30:34;;;;;;;36.07;21.67;;;;;;;9.17;93.65;99285.63;5071029;28;20220;-75
2023/12/07 07:33:01;;;;;;;33.17;22.03;;;;;;;9.17;93.13;99277.66;5071313;28;20191;-78
2023/12/07 07:35:28;;;;;;;29.13;22.03;;;;;;;9.11;92.19;99281.06;5071178;28;20670;-81
2023/12/07 07:37:57;;;;;;;29.03;20.80;;;;;;;9.09;94.44;99279.63;5071362;28;20246;-80
2023/12/07 07:40:24;;;;;;;29.67;20.20;;;;;;;9.12;94.05;99280.09;5071433;28;20698;-78
2023/12/07 07:42:51;;;;;;;29.10;20.63;;;;;;;9.17;94.20;99282.97;5071772;28;20188;-80
2023/12/07 07:45:18;;;;;;;28.33;19.47;;;;;;;9.22;94.08;99290.31;5070615;28;20184;-79
2023/12/07 07:47:45;;;;;;;30.63;20.13;;;;;;;9.32;94.49;99290.81;5079371;28;20248;-79
2023/12/07 07:50:12;;;;;;;34.30;20.57;;;;;;;9.38;93.20;99292.69;5087967;28;20184;-77
2023/12/07 07:52:40;;;;;;;27.57;20.37;;;;;;;9.46;93.54;99295.19;5069708;28;20207;-75
2023/12/07 07:55:09;;;;;;;28.20;20.27;;;;;;;9.58;92.99;99296.28;5067171;28;20712;-77
2023/12/07 07:57:35;;;;;;;28.33;19.73;;;;;;;9.60;91.29;99294.28;5069698;28;20551;-76
2023/12/07 08:00:04;;;;;;;28.40;19.80;;;;;;;9.59;90.93;99298.75;5068177;28;20261;-75
2023/12/07 08:02:31;;;;;;;27.13;19.83;;;;;;;9.63;90.89;99302.66;5067625;28;20274;-76
2023/12/07 08:04:58;;;;;;;27.07;18.23;;;;;;;9.55;90.61;99296.69;5064309;28;20265;-75
2023/12/07 08:07:24;;;;;;;24.60;19.30;;;;;;;9.56;91.38;99299.13;5069094;28;20287;-75
2023/12/07 08:09:51;;;;;;;22.33;18.07;;;;;;;9.69;92.40;99303.72;5071503;28;20199;-74
2023/12/07 08:12:19;;;;;;;27.70;19.07;;;;;;;9.79;90.73;99305.00;5068341;28;20203;-79
2023/12/07 08:14:48;;;;;;;29.17;20.43;;;;;;;9.83;90.25;99305.41;5068243;28;20667;-80
2023/12/07 08:17:14;;;;;;;27.13;20.20;;;;;;;9.71;90.87;99309.63;5072553;28;20224;-80
2023/12/07 08:19:42;;;;;;;29.83;21.10;;;;;;;9.75;90.41;99310.88;5066385;28;20183;-77
2023/12/07 08:22:09;;;;;;;30.10;21.03;;;;;;;9.75;91.56;99300.28;5072485;28;20192;-77
2023/12/07 08:24:37;;;;;;;26.90;20.67;;;;;;;9.87;91.36;99306.66;5071376;28;20280;-77
2023/12/07 08:27:04;;;;;;;27.30;21.40;;;;;;;9.91;90.19;99310.56;5071209;28;20196;-74
2023/12/07 08:29:33;;;;;;;29.47;22.70;;;;;;;9.85;89.19;99308.72;5084302;28;20204;-72
2023/12/07 08:31:59;;;;;;;29.40;22.10;;;;;;;9.75;88.41;99313.53;5069710;28;20299;-73
2023/12/07 08:34:26;;;;;;;35.90;23.00;;;;;;;9.70;90.31;99313.31;5070115;28;20635;-76
2023/12/07 08:36:53;;;;;;;33.03;24.53;;;;;;;9.78;90.13;99321.94;5069781;28;20624;-75
2023/12/07 08:39:20;;;;;;;32.97;23.83;;;;;;;9.89;89.52;99320.56;5071078;28;20196;-77
2023/12/07 08:41:46;;;;;;;35.17;25.93;;;;;;;9.74;89.95;99311.91;5073662;28;20200;-78
2023/12/07 08:44:13;;;;;;;38.97;26.77;;;;;;;9.64;90.37;99311.44;5074353;28;20702;-79
2023/12/07 08:46:43;;;;;;;37.20;24.93;;;;;;;9.63;91.71;99315.91;5074235;28;20600;-76
2023/12/07 08:49:10;;;;;;;45.30;27.07;;;;;;;9.71;91.64;99317.59;5074357;28;20258;-78
2023/12/07 08:51:37;;;;;;;35.83;26.20;;;;;;;9.68;92.32;99313.50;5074372;28;20188;-78
2023/12/07 08:54:05;;;;;;;40.30;28.93;;;;;;;9.75;93.01;99309.06;5076445;28;20671;-74
2023/12/07 08:56:31;;;;;;;44.80;33.30;;;;;;;9.88;92.55;99303.00;5074275;28;20199;-75
2023/12/07 08:58:58;;;;;;;36.17;26.77;;;;;;;9.99;91.22;99295.31;5076547;28;20200;-71
2023/12/07 09:01:26;;;;;;;29.03;21.10;;;;;;;10.01;91.36;99297.78;5074221;28;20601;-72
2023/12/07 09:03:54;;;;;;;29.00;22.37;;;;;;;9.84;91.69;99301.75;5072894;28;20216;-72
2023/12/07 09:06:21;;;;;;;28.20;21.03;;;;;;;9.93;91.91;99290.78;5073140;28;20200;-75
2023/12/07 09:08:47;;;;;;;36.57;22.23;;;;;;;10.11;91.40;99300.91;5073545;28;20265;-74
2023/12/07 09:11:14;;;;;;;32.20;21.97;;;;;;;10.27;89.86;99303.22;5074073;28;20253;-76
2023/12/07 09:13:41;;;;;;;42.77;21.43;;;;;;;10.48;90.36;99300.44;5073000;28;20266;-74
2023/12/07 09:16:08;;;;;;;26.07;17.60;;;;;;;10.72;89.37;99305.19;5073634;28;20200;-76
2023/12/07 09:18:35;;;;;;;22.77;17.10;;;;;;;10.87;88.58;99306.63;5071673;28;20192;-74
2023/12/07 09:21:03;;;;;;;26.17;16.47;;;;;;;10.96;85.97;99309.94;5072830;28;20280;-75
2023/12/07 09:23:30;;;;;;;25.70;16.83;;;;;;;10.93;85.42;99305.03;5073757;28;20232;-74
2023/12/07 09:25:57;;;;;;;22.50;16.63;;;;;;;10.77;86.84;99300.91;5073468;28;20631;-74
2023/12/07 09:28:24;;;;;;;20.90;16.47;;;;;;;10.62;87.17;99296.81;5073651;28;20205;-76
2023/12/07 09:30:51;;;;;;;24.23;18.23;;;;;;;10.70;88.19;99297.41;5074232;28;20227;-75
2023/12/07 09:33:18;;;;;;;23.53;17.37;;;;;;;10.89;88.06;99293.16;5071949;28;20193;-75
2023/12/07 09:35:45;;;;;;;13.13;10.50;;;;;;;11.48;99.78;99272.72;5072621;28;20680;-73
2023/12/07 09:38:13;;;;;;;21.23;15.80;;;;;;;12.92;100.00;99275.59;5072762;28;20193;-78
2023/12/07 09:40:40;;;;;;;19.97;16.63;;;;;;;12.77;86.34;99291.88;5072968;28;20203;-78
2023/12/07 09:43:07;;;;;;;25.63;19.30;;;;;;;12.71;81.59;99298.09;5074093;28;20194;-74
2023/12/07 09:45:34;;;;;;;29.20;20.13;;;;;;;12.49;80.94;99294.09;5073547;28;20231;-75
2023/12/07 09:48:01;;;;;;;21.70;17.20;;;;;;;12.37;80.70;99287.00;5073182;28;20203;-72
2023/12/07 09:50:28;;;;;;;21.90;16.23;;;;;;;12.37;80.70;99279.00;5085635;28;20204;-72
2023/12/07 09:52:57;;;;;;;24.37;15.03;;;;;;;12.43;81.13;99286.97;5092181;28;20189;-75
2023/12/07 09:55:24;;;;;;;18.37;15.67;;;;;;;12.36;79.35;99288.84;5073798;28;20202;-75
2023/12/07 09:57:54;;;;;;;19.67;14.37;;;;;;;12.29;80.02;99288.03;5073189;28;20199;-76
2023/12/07 10:00:21;;;;;;;17.87;14.80;;;;;;;12.34;80.57;99280.25;5072426;28;20216;-76
2023/12/07 10:02:48;;;;;;;19.07;14.00;;;;;;;12.33;80.84;99283.94;5072316;28;20202;-74
2023/12/07 10:05:16;;;;;;;19.77;13.17;;;;;;;12.27;80.14;99284.78;5072963;28;20227;-76
2023/12/07 10:07:44;;;;;;;14.83;13.33;;;;;;;12.16;80.89;99277.44;5073181;28;20706;-76
2023/12/07 10:10:13;;;;;;;19.20;13.43;;;;;;;12.03;81.51;99274.84;5073720;28;20198;-76
2023/12/07 10:12:48;;;;;;;16.53;12.77;;;;;;;11.97;81.26;99278.31;5073547;28;20197;-73
2023/12/07 10:15:16;;;;;;;14.67;12.43;;;;;;;11.98;82.03;99269.34;5072886;28;20236;-74
2023/12/07 10:17:50;;;;;;;15.87;11.97;;;;;;;11.89;81.49;99275.09;5072684;28;20258;-74
2023/12/07 10:20:18;;;;;;;15.33;13.47;;;;;;;11.83;80.35;99281.25;5071560;28;20721;-74
2023/12/07 10:22:46;;;;;;;21.73;12.93;;;;;;;11.67;81.71;99269.22;5072791;28;20194;-74
2023/12/07 10:25:13;;;;;;;18.50;13.17;;;;;;;11.59;81.93;99264.09;5070282;28;20225;-72
2023/12/07 10:27:42;;;;;;;15.87;13.30;;;;;;;11.42;82.70;99268.22;5073675;28;20223;-72
2023/12/07 10:30:12;;;;;;;16.47;13.40;;;;;;;11.36;83.12;99263.72;5072385;28;20252;-76
2023/12/07 10:32:39;;;;;;;19.87;14.50;;;;;;;11.39;85.36;99257.97;5069874;28;20673;-74
2023/12/07 10:35:09;;;;;;;15.40;11.67;;;;;;;11.39;84.92;99257.97;5069200;28;20202;-75
2023/12/07 10:37:35;;;;;;;17.90;12.30;;;;;;;11.50;85.06;99252.03;5069844;28;20304;-74
2023/12/07 10:40:05;;;;;;;19.00;12.40;;;;;;;11.60;85.00;99259.59;5071679;28;20197;-74
2023/12/07 10:42:35;;;;;;;16.90;12.93;;;;;;;11.69;85.02;99253.88;5073633;28;20561;-75
2023/12/07 10:45:05;;;;;;;14.53;12.93;;;;;;;11.58;83.58;99254.47;5069571;28;20224;-66
2023/12/07 10:47:37;;;;;;;16.87;12.90;;;;;;;11.58;85.16;99251.81;5052200;28;20191;-66
2023/12/07 10:50:10;;;;;;;13.17;11.77;;;;;;;11.69;85.72;99237.91;5068920;28;20213;-66
2023/12/07 10:52:38;;;;;;;14.40;11.50;;;;;;;11.78;85.87;99234.00;5071486;28;20195;-66
2023/12/07 10:55:08;;;;;;;12.10;10.83;;;;;;;11.90;85.62;99237.63;5072374;28;20263;-65
2023/12/07 10:57:37;;;;;;;14.80;11.10;;;;;;;12.03;84.84;99245.56;5072362;28;20191;-65
2023/12/07 11:00:05;;;;;;;13.37;11.87;;;;;;;11.98;83.63;99241.91;5071916;28;20230;-66
2023/12/07 11:02:35;;;;;;;13.80;12.23;;;;;;;11.96;83.61;99244.75;5071099;28;20721;-67
2023/12/07 11:05:03;;;;;;;17.67;11.57;;;;;;;11.87;83.94;99235.38;5072351;28;20226;-66
2023/12/07 11:07:39;;;;;;;12.30;11.10;;;;;;;11.78;85.40;99233.16;5071874;28;20727;-65
2023/12/07 11:10:16;;;;;;;13.00;11.70;;;;;;;11.86;85.25;99228.44;5071736;28;20186;-66
2023/12/07 11:12:48;;;;;;;11.33;10.23;;;;;;;11.89;84.17;99233.34;5072039;28;20273;-65
2023/12/07 11:15:17;;;;;;;10.80;9.80;;;;;;;11.90;84.16;99240.28;5072151;28;20228;-66
2023/12/07 11:17:56;;;;;;;11.53;10.37;;;;;;;11.85;84.88;99220.66;5071752;28;20724;-65
2023/12/07 11:20:33;;;;;;;13.87;12.33;;;;;;;11.80;84.25;99223.94;5072017;28;20248;-65
2023/12/07 11:23:00;;;;;;;13.40;11.47;;;;;;;11.80;84.95;99218.63;5072026;28;20209;-65